createdAt,value
2023-04-18T00:01:28.892Z,6.20
2023-04-18T00:03:57.996Z,6.53
2023-04-18T00:06:26.971Z,7.57
2023-04-18T00:08:54.576Z,8.18
2023-04-18T00:11:22.208Z,7.90
2023-04-18T00:13:49.884Z,7.73
2023-04-18T00:16:18.937Z,7.05
2023-04-18T00:18:48.116Z,7.93
2023-04-18T00:21:16.722Z,7.53
2023-04-18T00:23:45.957Z,8.02
2023-04-18T00:26:14.041Z,6.93
2023-04-18T00:28:41.679Z,7.90
2023-04-18T00:31:09.327Z,7.80
2023-04-18T00:33:38.276Z,7.25
2023-04-18T00:36:07.023Z,8.57
2023-04-18T00:38:34.754Z,7.90
2023-04-18T00:41:02.423Z,7.40
2023-04-18T00:43:30.132Z,7.35
2023-04-18T00:46:01.240Z,7.50
2023-04-18T00:48:28.918Z,6.70
2023-04-18T00:51:00.212Z,6.10
2023-04-18T00:53:28.190Z,6.85
2023-04-18T00:55:56.369Z,6.63
2023-04-18T00:58:25.109Z,6.72
2023-04-18T01:00:53.931Z,6.70
2023-04-18T01:03:22.825Z,6.07
2023-04-18T01:05:50.893Z,6.60
2023-04-18T01:08:20.291Z,7.60
2023-04-18T01:10:48.022Z,7.22
2023-04-18T01:13:16.871Z,7.53
2023-04-18T01:15:45.852Z,8.00
2023-04-18T01:18:16.772Z,8.43
2023-04-18T01:20:46.697Z,7.70
2023-04-18T01:23:14.895Z,7.65
2023-04-18T01:25:44.061Z,7.22
2023-04-18T01:28:13.016Z,5.77
2023-04-18T01:30:40.993Z,6.13
2023-04-18T01:33:08.525Z,5.97
2023-04-18T01:35:36.209Z,7.38
2023-04-18T01:38:03.882Z,6.45
2023-04-18T01:40:31.419Z,6.77
2023-04-18T01:43:00.534Z,7.10
2023-04-18T01:45:28.026Z,7.70
2023-04-18T01:47:55.586Z,7.88
2023-04-18T01:50:23.430Z,7.97
2023-04-18T01:52:50.945Z,6.77
2023-04-18T01:55:18.614Z,7.93
2023-04-18T01:57:46.316Z,7.95
2023-04-18T02:00:15.841Z,8.20
2023-04-18T02:02:43.543Z,7.85
2023-04-18T02:05:11.202Z,7.70
2023-04-18T02:07:38.678Z,8.25
2023-04-18T02:10:07.302Z,8.35
2023-04-18T02:12:34.916Z,7.97
2023-04-18T02:15:02.523Z,8.70
2023-04-18T02:17:31.414Z,8.30
2023-04-18T02:19:58.867Z,8.38
2023-04-18T02:22:26.343Z,9.38
2023-04-18T02:24:53.859Z,9.10
2023-04-18T02:27:21.353Z,8.15
2023-04-18T02:29:48.814Z,8.60
2023-04-18T02:32:16.455Z,8.88
2023-04-18T02:34:45.297Z,8.00
2023-04-18T02:37:12.738Z,9.27
2023-04-18T02:39:40.240Z,8.52
2023-04-18T02:42:07.796Z,8.27
2023-04-18T02:44:35.363Z,8.43
2023-04-18T02:47:02.798Z,7.82
2023-04-18T02:49:30.220Z,7.88
2023-04-18T02:51:59.088Z,8.85
2023-04-18T02:54:26.644Z,8.07
2023-04-18T02:56:55.065Z,9.05
2023-04-18T02:59:22.533Z,9.13
2023-04-18T03:01:50.003Z,8.90
2023-04-18T03:04:17.572Z,9.07
2023-04-18T03:06:45.140Z,8.73
2023-04-18T03:09:14.023Z,9.75
2023-04-18T03:11:41.544Z,9.77
2023-04-18T03:14:09.105Z,9.20
2023-04-18T03:16:36.638Z,9.38
2023-04-18T03:19:04.118Z,9.17
2023-04-18T03:21:31.627Z,10.07
2023-04-18T03:23:59.406Z,9.48
2023-04-18T03:26:29.899Z,8.50
2023-04-18T03:28:57.415Z,8.70
2023-04-18T03:31:24.949Z,9.13
2023-04-18T03:33:52.508Z,9.18
2023-04-18T03:36:25.068Z,9.68
2023-04-18T03:38:52.649Z,9.35
2023-04-18T03:41:20.170Z,8.85
2023-04-18T03:43:49.054Z,8.80
2023-04-18T03:46:16.637Z,8.63
2023-04-18T03:48:44.171Z,9.68
2023-04-18T03:51:11.621Z,9.63
2023-04-18T03:53:39.123Z,9.30
2023-04-18T03:56:06.955Z,10.20
2023-04-18T03:58:34.415Z,9.75
2023-04-18T04:01:03.272Z,9.20
2023-04-18T04:03:30.881Z,10.35
2023-04-18T04:05:58.487Z,10.35
2023-04-18T04:08:27.669Z,10.33
2023-04-18T04:10:55.810Z,9.40
2023-04-18T04:13:23.266Z,12.05
2023-04-18T04:15:51.420Z,11.68
2023-04-18T04:18:20.274Z,11.90
2023-04-18T04:20:48.973Z,11.53
2023-04-18T04:23:16.433Z,12.38
2023-04-18T04:25:46.232Z,11.43
2023-04-18T04:28:14.149Z,12.63
2023-04-18T04:30:42.414Z,7.15
2023-04-18T04:33:09.889Z,5.23
2023-04-18T04:35:38.832Z,6.68
2023-04-18T04:38:07.122Z,7.65
2023-04-18T04:40:34.652Z,7.75
2023-04-18T04:43:02.218Z,8.93
2023-04-18T04:45:29.756Z,9.63
2023-04-18T04:47:57.333Z,11.75
2023-04-18T04:50:24.880Z,13.13
2023-04-18T04:52:53.683Z,13.45
2023-04-18T04:55:21.241Z,12.88
2023-04-18T04:57:48.679Z,12.47
2023-04-18T05:00:20.655Z,12.15
2023-04-18T05:02:48.315Z,12.23
2023-04-18T05:05:16.179Z,12.30
2023-04-18T05:07:43.622Z,12.80
2023-04-18T05:10:12.704Z,13.33
2023-04-18T05:12:40.129Z,13.07
2023-04-18T05:15:08.283Z,13.68
2023-04-18T05:17:35.769Z,14.02
2023-04-18T05:20:04.065Z,13.27
2023-04-18T05:22:31.685Z,12.60
2023-04-18T05:24:59.194Z,12.38
2023-04-18T05:27:28.425Z,13.52
2023-04-18T05:29:56.070Z,13.75
2023-04-18T05:32:23.581Z,13.20
2023-04-18T05:34:51.090Z,14.20
2023-04-18T05:37:18.536Z,14.88
2023-04-18T05:39:46.082Z,14.43
2023-04-18T05:42:13.486Z,11.88
2023-04-18T05:44:42.276Z,9.57
2023-04-18T05:47:09.700Z,11.10
2023-04-18T05:49:37.131Z,12.68
2023-04-18T05:52:04.754Z,11.05
2023-04-18T05:54:32.226Z,10.50
2023-04-18T05:56:59.659Z,10.20
2023-04-18T05:59:27.657Z,9.10
2023-04-18T06:01:57.117Z,12.63
2023-04-18T06:04:24.758Z,12.57
2023-04-18T06:06:52.360Z,12.27
2023-04-18T06:09:19.918Z,11.75
2023-04-18T06:11:47.570Z,9.67
2023-04-18T06:14:15.347Z,7.78
2023-04-18T06:16:43.237Z,6.18
2023-04-18T06:19:12.210Z,7.78
2023-04-18T06:21:41.899Z,8.50
2023-04-18T06:24:09.452Z,4.90
2023-04-18T06:26:36.884Z,7.30
2023-04-18T06:29:04.351Z,5.30
2023-04-18T06:31:31.803Z,4.55
2023-04-18T06:33:59.257Z,4.93
2023-04-18T06:36:28.341Z,6.60
2023-04-18T06:38:55.766Z,9.10
2023-04-18T06:41:23.367Z,5.90
2023-04-18T06:44:02.803Z,7.55
2023-04-18T06:46:31.509Z,8.43
2023-04-18T06:48:59.127Z,8.17
2023-04-18T06:51:28.823Z,7.07
2023-04-18T06:53:56.257Z,5.57
2023-04-18T06:56:23.820Z,8.55
2023-04-18T06:58:52.739Z,6.22
2023-04-18T07:01:20.693Z,13.93
2023-04-18T07:03:48.256Z,8.40
2023-04-18T07:06:16.222Z,9.13
2023-04-18T07:08:44.999Z,7.88
2023-04-18T07:11:13.119Z,6.82
2023-04-18T07:13:40.534Z,11.57
2023-04-18T07:16:10.186Z,14.05
2023-04-18T07:18:38.529Z,15.43
2023-04-18T07:21:07.978Z,9.52
2023-04-18T07:23:35.558Z,10.93
2023-04-18T07:26:05.696Z,9.07
2023-04-18T07:28:33.933Z,7.65
2023-04-18T07:31:02.917Z,8.85
2023-04-18T07:33:31.593Z,6.47
2023-04-18T07:35:59.211Z,8.57
2023-04-18T07:38:27.793Z,9.90
2023-04-18T07:40:57.693Z,9.75
2023-04-18T07:43:26.809Z,8.93
2023-04-18T07:45:54.412Z,9.15
2023-04-18T07:48:22.683Z,7.80
2023-04-18T07:50:50.385Z,6.03
2023-04-18T07:53:18.216Z,8.57
2023-04-18T07:55:45.874Z,10.57
2023-04-18T07:58:13.628Z,7.47
2023-04-18T08:00:44.585Z,5.85
2023-04-18T08:03:13.433Z,7.47
2023-04-18T08:05:42.358Z,8.05
2023-04-18T08:08:11.685Z,7.47
2023-04-18T08:10:39.233Z,7.20
2023-04-18T08:13:07.974Z,8.68
2023-04-18T08:15:35.709Z,8.20
2023-04-18T08:18:04.599Z,4.97
2023-04-18T08:20:32.070Z,4.13
2023-04-18T08:23:06.220Z,8.27
2023-04-18T08:25:36.817Z,9.43
2023-04-18T08:28:04.661Z,8.70
2023-04-18T08:30:32.308Z,8.25
2023-04-18T08:33:00.069Z,6.18
2023-04-18T08:35:28.960Z,8.93
2023-04-18T08:37:56.343Z,6.35
2023-04-18T08:40:24.095Z,6.50
2023-04-18T08:42:53.996Z,7.03
2023-04-18T08:45:21.498Z,5.72
2023-04-18T08:47:48.989Z,6.55
2023-04-18T08:50:17.138Z,7.05
2023-04-18T08:52:48.645Z,6.83
2023-04-18T08:55:16.814Z,7.80
2023-04-18T08:57:45.540Z,7.00
2023-04-18T09:00:14.357Z,7.90
2023-04-18T09:02:43.487Z,7.32
2023-04-18T09:05:13.021Z,8.90
2023-04-18T09:07:40.919Z,8.07
2023-04-18T09:10:12.317Z,7.75
2023-04-18T09:12:49.842Z,6.72
2023-04-18T09:15:20.114Z,8.32
2023-04-18T09:17:50.696Z,7.90
2023-04-18T09:20:34.328Z,7.85
2023-04-18T09:23:03.653Z,7.65
2023-04-18T09:25:35.907Z,5.90
2023-04-18T09:28:05.501Z,5.43
2023-04-18T09:30:36.656Z,6.87
2023-04-18T09:33:05.375Z,6.00
2023-04-18T09:35:32.866Z,4.90
2023-04-18T09:38:01.349Z,4.93
2023-04-18T09:40:29.100Z,5.32
2023-04-18T09:42:57.948Z,6.07
2023-04-18T09:45:26.627Z,4.88
2023-04-18T09:47:55.605Z,5.05
2023-04-18T09:50:23.174Z,4.53
2023-04-18T09:52:50.707Z,4.03
2023-04-18T09:55:19.195Z,8.50
2023-04-18T09:57:48.500Z,5.22
2023-04-18T10:00:23.968Z,2.95
2023-04-18T10:02:55.711Z,3.90
2023-04-18T10:05:27.190Z,4.65
2023-04-18T10:07:55.732Z,7.43
2023-04-18T10:10:24.228Z,6.70
2023-04-18T10:12:54.117Z,5.90
2023-04-18T10:15:26.254Z,4.57
2023-04-18T10:20:28.620Z,3.23
2023-04-18T10:22:57.712Z,6.43
2023-04-18T10:25:49.134Z,2.63
2023-04-18T10:28:16.772Z,4.43
2023-04-18T10:30:54.234Z,4.85
2023-04-18T10:33:31.764Z,5.93
2023-04-18T10:36:02.249Z,3.38
2023-04-18T10:38:29.844Z,4.25
2023-04-18T10:41:17.698Z,5.40
2023-04-18T10:44:25.769Z,2.90
2023-04-18T10:47:22.893Z,3.50
2023-04-18T10:50:01.491Z,3.88
2023-04-18T10:52:30.222Z,4.63
2023-04-18T10:55:11.198Z,7.40
2023-04-18T10:57:39.962Z,5.60
2023-04-18T11:00:11.113Z,6.07
2023-04-18T11:02:41.147Z,8.15
2023-04-18T11:05:09.775Z,4.88
2023-04-18T11:07:38.507Z,3.42
2023-04-18T11:10:09.064Z,5.50
2023-04-18T11:12:39.221Z,6.03
2023-04-18T11:15:11.752Z,2.92
2023-04-18T11:17:41.228Z,6.40
2023-04-18T11:20:11.407Z,6.25
2023-04-18T11:22:46.698Z,5.00
2023-04-18T11:25:14.701Z,6.80
2023-04-18T11:27:44.285Z,6.93
2023-04-18T11:30:13.073Z,5.30
2023-04-18T11:32:42.701Z,5.05
2023-04-18T11:35:11.931Z,6.00
2023-04-18T11:37:42.281Z,5.40
2023-04-18T11:40:13.056Z,6.65
2023-04-18T11:42:41.770Z,6.97
2023-04-18T11:45:13.504Z,4.78
2023-04-18T11:47:43.917Z,8.60
2023-04-18T11:50:13.683Z,4.80
2023-04-18T11:52:42.927Z,5.10
2023-04-18T11:55:17.753Z,4.50
2023-04-18T11:57:52.340Z,6.97
2023-04-18T12:00:22.148Z,5.10
2023-04-18T12:02:52.350Z,2.30
2023-04-18T12:05:27.612Z,2.72
2023-04-18T12:07:55.806Z,2.95
2023-04-18T12:10:29.425Z,2.67
2023-04-18T12:12:59.526Z,5.45
2023-04-18T12:15:29.118Z,4.00
2023-04-18T12:18:03.113Z,4.18
2023-04-18T12:20:36.477Z,3.58
2023-04-18T12:23:04.740Z,3.88
2023-04-18T12:25:32.655Z,3.53
2023-04-18T12:28:01.825Z,3.17
2023-04-18T12:30:37.453Z,5.80
2023-04-18T12:33:06.764Z,5.20
2023-04-18T12:35:34.483Z,6.35
2023-04-18T12:38:03.738Z,5.93
2023-04-18T12:40:31.551Z,4.07
2023-04-18T12:43:00.542Z,6.00
2023-04-18T12:45:29.292Z,4.20
2023-04-18T12:47:56.976Z,4.13
2023-04-18T12:50:27.461Z,3.28
2023-04-18T12:52:56.728Z,3.70
2023-04-18T12:55:25.142Z,5.00
2023-04-18T12:57:54.772Z,4.75
2023-04-18T13:00:24.412Z,3.38
2023-04-18T13:02:53.329Z,4.65
2023-04-18T13:05:32.503Z,4.40
2023-04-18T13:08:15.443Z,5.35
2023-04-18T13:10:44.240Z,5.68
2023-04-18T13:13:11.665Z,4.90
2023-04-18T13:15:39.590Z,4.05
2023-04-18T13:18:07.279Z,6.10
2023-04-18T13:20:35.716Z,5.15
2023-04-18T13:23:04.670Z,4.15
2023-04-18T13:25:32.377Z,5.30
2023-04-18T13:28:00.709Z,3.15
2023-04-18T13:30:28.704Z,3.50
2023-04-18T13:32:56.607Z,4.05
2023-04-18T13:35:24.072Z,4.38
2023-04-18T13:37:51.480Z,4.53
2023-04-18T13:40:20.826Z,4.13
2023-04-18T13:42:48.275Z,4.90
2023-04-18T13:45:15.768Z,4.38
2023-04-18T13:47:43.323Z,4.28
2023-04-18T13:50:11.304Z,4.15
2023-04-18T13:52:38.726Z,5.15
2023-04-18T13:55:07.485Z,3.40
2023-04-18T13:57:37.213Z,4.88
2023-04-18T14:00:09.049Z,3.75
2023-04-18T14:02:36.680Z,4.78
2023-04-18T14:05:04.562Z,3.53
2023-04-18T14:07:32.085Z,4.40
2023-04-18T14:09:59.509Z,5.03
2023-04-18T14:12:27.143Z,4.82
2023-04-18T14:14:55.893Z,3.28
2023-04-18T14:17:23.368Z,3.75
2023-04-18T14:19:51.321Z,3.53
2023-04-18T14:22:18.745Z,5.97
2023-04-18T14:24:46.173Z,4.50
2023-04-18T14:27:13.898Z,3.30
2023-04-18T14:29:41.566Z,3.75
2023-04-18T14:32:10.469Z,2.50
2023-04-18T14:34:38.833Z,3.42
2023-04-18T14:37:06.409Z,4.35
2023-04-18T14:39:33.858Z,3.70
2023-04-18T14:42:01.333Z,2.80
2023-04-18T14:44:31.808Z,3.40
2023-04-18T14:47:02.559Z,5.45
2023-04-18T14:49:31.496Z,4.20
2023-04-18T14:51:59.115Z,3.03
2023-04-18T14:54:26.623Z,3.30
2023-04-18T14:56:57.481Z,3.20
2023-04-18T14:59:27.770Z,2.17
2023-04-18T15:01:55.271Z,3.55
2023-04-18T15:04:23.216Z,3.70
2023-04-18T15:06:52.138Z,3.67
2023-04-18T15:09:19.570Z,4.40
2023-04-18T15:11:47.003Z,2.92
2023-04-18T15:14:14.571Z,2.83
2023-04-18T15:16:42.202Z,3.20
2023-04-18T15:19:09.661Z,3.22
2023-04-18T15:21:37.126Z,3.43
2023-04-18T15:24:06.414Z,3.17
2023-04-18T15:26:33.890Z,3.58
2023-04-18T15:29:03.525Z,2.75
2023-04-18T15:31:31.489Z,3.22
2023-04-18T15:33:59.021Z,4.47
2023-04-18T15:36:27.577Z,2.72
2023-04-18T15:38:55.063Z,2.65
2023-04-18T15:41:23.856Z,4.03
2023-04-18T15:43:53.292Z,4.15
2023-04-18T15:46:20.782Z,2.60
2023-04-18T15:48:48.268Z,4.28
2023-04-18T15:51:15.690Z,4.47
2023-04-18T15:53:43.120Z,3.22
2023-04-18T15:56:10.871Z,3.47
2023-04-18T15:58:39.640Z,2.73
2023-04-18T16:01:07.588Z,3.30
2023-04-18T16:03:35.971Z,3.13
2023-04-18T16:06:04.421Z,4.15
2023-04-18T16:08:33.295Z,4.20
2023-04-18T16:11:00.954Z,5.23
2023-04-18T16:13:28.349Z,3.65
2023-04-18T16:15:57.205Z,4.80
2023-04-18T16:18:24.615Z,4.90
2023-04-18T16:20:52.057Z,4.05
2023-04-18T16:23:20.358Z,4.67
2023-04-18T16:25:47.799Z,5.35
2023-04-18T16:28:15.349Z,4.65
2023-04-18T16:30:43.693Z,3.53
2023-04-18T16:33:12.584Z,4.30
2023-04-18T16:35:40.243Z,3.77
2023-04-18T16:38:07.746Z,5.50
2023-04-18T16:40:35.300Z,5.13
2023-04-18T16:43:02.884Z,4.47
2023-04-18T16:45:30.303Z,2.92
2023-04-18T16:47:57.951Z,2.87
2023-04-18T16:50:27.064Z,5.28
2023-04-18T16:52:54.513Z,3.28
2023-04-18T16:55:22.179Z,3.10
2023-04-18T16:57:49.601Z,4.88
2023-04-18T17:00:17.452Z,2.93
2023-04-18T17:02:45.170Z,3.92
2023-04-18T17:05:12.838Z,4.35
2023-04-18T17:07:41.616Z,5.70
2023-04-18T17:10:10.460Z,3.75
2023-04-18T17:12:37.916Z,3.87
2023-04-18T17:15:06.884Z,3.50
2023-04-18T17:17:35.240Z,3.35
2023-04-18T17:20:05.962Z,2.92
2023-04-18T17:22:33.426Z,4.22
2023-04-18T17:25:03.006Z,4.40
2023-04-18T17:27:30.666Z,3.78
2023-04-18T17:29:58.138Z,5.00
2023-04-18T17:32:25.621Z,3.15
2023-04-18T17:34:53.639Z,5.00
2023-04-18T17:37:22.202Z,4.00
2023-04-18T17:39:49.743Z,3.83
2023-04-18T17:42:20.970Z,3.33
2023-04-18T17:44:48.426Z,3.72
2023-04-18T17:47:16.040Z,2.92
2023-04-18T17:49:43.461Z,3.20
2023-04-18T17:52:10.898Z,3.40
2023-04-18T17:54:38.394Z,4.70
2023-04-18T17:57:06.180Z,2.65
2023-04-18T17:59:37.568Z,2.50
2023-04-18T18:02:05.354Z,3.17
2023-04-18T18:04:33.096Z,2.75
2023-04-18T18:07:00.611Z,2.25
2023-04-18T18:09:28.051Z,3.05
2023-04-18T18:11:56.095Z,2.97
2023-04-18T18:14:23.788Z,3.13
2023-04-18T18:16:52.641Z,2.90
2023-04-18T18:19:20.930Z,3.63
2023-04-18T18:21:48.516Z,3.05
2023-04-18T18:24:16.277Z,2.92
2023-04-18T18:26:43.900Z,2.10
2023-04-18T18:29:11.529Z,3.63
2023-04-18T18:31:40.060Z,3.50
2023-04-18T18:34:09.075Z,3.88
2023-04-18T18:36:36.574Z,3.78
2023-04-18T18:39:04.449Z,2.23
2023-04-18T18:41:32.192Z,2.67
2023-04-18T18:43:59.885Z,3.15
2023-04-18T18:46:27.654Z,3.15
2023-04-18T18:48:55.375Z,2.55
2023-04-18T18:51:24.876Z,3.30
2023-04-18T18:53:52.463Z,3.00
2023-04-18T18:56:20.060Z,2.33
2023-04-18T18:58:47.964Z,3.00
2023-04-18T19:01:15.784Z,3.58
2023-04-18T19:03:43.530Z,3.67
2023-04-18T19:06:11.216Z,3.17
2023-04-18T19:08:40.209Z,2.58
2023-04-18T19:11:07.971Z,2.70
2023-04-18T19:13:35.562Z,3.13
2023-04-18T19:16:03.229Z,2.60
2023-04-18T19:18:30.891Z,3.30
2023-04-18T19:20:58.484Z,1.92
2023-04-18T19:23:28.256Z,3.80
2023-04-18T19:25:57.288Z,6.32
2023-04-18T19:28:25.772Z,4.47
2023-04-18T19:30:54.012Z,6.25
2023-04-18T19:33:24.160Z,4.15
2023-04-18T19:35:51.930Z,4.35
2023-04-18T19:38:19.479Z,4.63
2023-04-18T19:40:47.297Z,2.93
2023-04-18T19:43:16.287Z,5.20
2023-04-18T19:45:43.918Z,5.13
2023-04-18T19:48:11.795Z,4.90
2023-04-18T19:50:40.259Z,4.95
2023-04-18T19:53:07.898Z,4.13
2023-04-18T19:55:35.853Z,2.70
2023-04-18T19:58:06.124Z,2.67
2023-04-18T20:00:35.123Z,5.05
2023-04-18T20:03:02.926Z,2.20
2023-04-18T20:05:31.006Z,2.63
2023-04-18T20:07:58.743Z,3.70
2023-04-18T20:10:26.494Z,4.72
2023-04-18T20:12:54.124Z,4.60
2023-04-18T20:15:22.506Z,3.80
2023-04-18T20:17:51.426Z,4.50
2023-04-18T20:20:19.186Z,3.53
2023-04-18T20:22:47.446Z,3.88
2023-04-18T20:25:17.957Z,4.07
2023-04-18T20:27:48.130Z,3.20
2023-04-18T20:30:16.489Z,4.17
2023-04-18T20:32:47.037Z,2.70
2023-04-18T20:35:16.216Z,3.38
2023-04-18T20:37:44.625Z,5.50
2023-04-18T20:40:12.712Z,2.83
2023-04-18T20:42:40.367Z,5.00
2023-04-18T20:45:11.184Z,3.33
2023-04-18T20:47:41.236Z,4.32
2023-04-18T20:50:10.127Z,2.70
2023-04-18T20:52:42.537Z,2.30
2023-04-18T20:55:10.867Z,4.20
2023-04-18T20:57:38.636Z,1.83
2023-04-18T21:00:08.351Z,2.50
2023-04-18T21:02:35.901Z,2.92
2023-04-18T21:05:03.568Z,2.63
2023-04-18T21:07:32.043Z,2.40
2023-04-18T21:10:01.032Z,1.13
2023-04-18T21:12:28.685Z,1.58
2023-04-18T21:14:56.259Z,2.20
2023-04-18T21:17:25.345Z,1.83
2023-04-18T21:19:53.089Z,2.33
2023-04-18T21:22:20.599Z,2.63
2023-04-18T21:24:48.080Z,2.05
2023-04-18T21:27:16.932Z,2.92
2023-04-18T21:29:44.360Z,1.88
2023-04-18T21:32:11.790Z,1.63
2023-04-18T21:34:39.213Z,2.30
2023-04-18T21:37:06.630Z,2.50
2023-04-18T21:39:34.069Z,1.65
2023-04-18T21:42:01.729Z,2.25
2023-04-18T21:44:31.028Z,1.90
2023-04-18T21:46:58.455Z,2.00
2023-04-18T21:49:26.025Z,2.42
2023-04-18T21:51:54.695Z,1.92
2023-04-18T21:54:22.136Z,2.60
2023-04-18T21:56:49.561Z,2.40
2023-04-18T21:59:16.993Z,1.90
2023-04-18T22:01:45.769Z,1.85
2023-04-18T22:04:14.420Z,1.80
2023-04-18T22:06:42.552Z,3.03
2023-04-18T22:09:11.697Z,2.10
2023-04-18T22:11:39.249Z,1.85
2023-04-18T22:14:06.762Z,2.22
2023-04-18T22:16:34.422Z,4.05
2023-04-18T22:19:03.917Z,2.88
2023-04-18T22:21:31.552Z,3.53
2023-04-18T22:23:59.168Z,4.00
2023-04-18T22:26:26.633Z,2.75
2023-04-18T22:28:54.096Z,3.17
2023-04-18T22:31:21.606Z,3.88
2023-04-18T22:33:49.077Z,2.10
2023-04-18T22:36:17.923Z,5.28
2023-04-18T22:38:45.414Z,3.42
2023-04-18T22:41:12.935Z,2.15
2023-04-18T22:43:40.352Z,2.97
2023-04-18T22:46:07.822Z,5.43
2023-04-18T22:48:35.480Z,5.13
2023-04-18T22:51:03.257Z,4.32
2023-04-18T22:53:32.023Z,3.80
2023-04-18T22:55:59.452Z,4.82
2023-04-18T22:58:26.940Z,2.60
2023-04-18T23:00:54.402Z,5.85
2023-04-18T23:03:22.126Z,3.88
2023-04-18T23:05:49.753Z,3.10
2023-04-18T23:08:18.614Z,4.32
2023-04-18T23:10:47.533Z,2.93
2023-04-18T23:13:14.996Z,4.57
2023-04-18T23:15:42.568Z,4.43
2023-04-18T23:18:10.076Z,3.92
2023-04-18T23:20:37.805Z,2.80
2023-04-18T23:23:05.625Z,4.00
2023-04-18T23:25:34.122Z,3.50
2023-04-18T23:28:02.953Z,2.40
2023-04-18T23:30:30.603Z,2.45
2023-04-18T23:32:58.120Z,3.65
2023-04-18T23:35:25.596Z,3.67
2023-04-18T23:37:53.039Z,3.83
2023-04-18T23:40:21.101Z,4.20
2023-04-18T23:42:48.586Z,4.30
2023-04-18T23:45:17.662Z,2.92
2023-04-18T23:47:45.177Z,3.63
2023-04-18T23:50:13.189Z,3.72
2023-04-18T23:52:40.794Z,3.17
2023-04-18T23:55:09.055Z,3.15
2023-04-18T23:57:36.553Z,3.88
